sensor_id;sensor_type;location;lat;lon;timestamp;pressure;altitude;pressure_sealevel;temperature
77355;BMP280;66422;51.202;19.936;2023-02-12T00:01:57;100546.00;;;5.83
77355;BMP280;66422;51.202;19.936;2023-02-12T00:17:17;100572.06;;;5.56
77355;BMP280;66422;51.202;19.936;2023-02-12T00:32:37;100587.08;;;5.48
77355;BMP280;66422;51.202;19.936;2023-02-12T00:47:57;100602.97;;;5.34
77355;BMP280;66422;51.202;19.936;2023-02-12T01:03:16;100618.10;;;5.19
77355;BMP280;66422;51.202;19.936;2023-02-12T01:18:36;100646.51;;;4.99
77355;BMP280;66422;51.202;19.936;2023-02-12T01:33:58;100672.00;;;4.74
77355;BMP280;66422;51.202;19.936;2023-02-12T01:49:23;100698.07;;;4.64
77355;BMP280;66422;51.202;19.936;2023-02-12T02:04:51;100715.01;;;4.52
77355;BMP280;66422;51.202;19.936;2023-02-12T02:20:47;100738.48;;;4.05
77355;BMP280;66422;51.202;19.936;2023-02-12T02:36:28;100785.47;;;3.17
77355;BMP280;66422;51.202;19.936;2023-02-12T02:51:54;100815.64;;;2.68
77355;BMP280;66422;51.202;19.936;2023-02-12T03:07:35;100836.56;;;2.41
77355;BMP280;66422;51.202;19.936;2023-02-12T03:23:04;100859.64;;;2.52
77355;BMP280;66422;51.202;19.936;2023-02-12T03:38:48;100889.80;;;2.56
77355;BMP280;66422;51.202;19.936;2023-02-12T03:54:13;100936.18;;;2.25
77355;BMP280;66422;51.202;19.936;2023-02-12T04:09:35;100961.61;;;2.52
77355;BMP280;66422;51.202;19.936;2023-02-12T04:40:23;101007.63;;;2.43
77355;BMP280;66422;51.202;19.936;2023-02-12T04:55:43;101027.05;;;2.36
77355;BMP280;66422;51.202;19.936;2023-02-12T05:11:05;101040.16;;;1.81
77355;BMP280;66422;51.202;19.936;2023-02-12T05:26:25;101082.10;;;1.85
77355;BMP280;66422;51.202;19.936;2023-02-12T05:41:45;101098.46;;;1.83
77355;BMP280;66422;51.202;19.936;2023-02-12T05:57:06;101106.78;;;1.82
77355;BMP280;66422;51.202;19.936;2023-02-12T06:12:25;101122.66;;;2.20
77355;BMP280;66422;51.202;19.936;2023-02-12T06:27:45;101152.27;;;2.41
77355;BMP280;66422;51.202;19.936;2023-02-12T06:43:05;101192.91;;;1.96
77355;BMP280;66422;51.202;19.936;2023-02-12T06:58:25;101222.45;;;1.94
77355;BMP280;66422;51.202;19.936;2023-02-12T07:13:44;101238.66;;;2.01
77355;BMP280;66422;51.202;19.936;2023-02-12T07:29:04;101251.41;;;2.31
77355;BMP280;66422;51.202;19.936;2023-02-12T07:44:23;101263.96;;;2.50
77355;BMP280;66422;51.202;19.936;2023-02-12T07:59:43;101286.25;;;2.65
77355;BMP280;66422;51.202;19.936;2023-02-12T08:15:03;101311.16;;;2.87
77355;BMP280;66422;51.202;19.936;2023-02-12T08:30:23;101317.20;;;3.14
77355;BMP280;66422;51.202;19.936;2023-02-12T08:45:42;101325.55;;;3.18
77355;BMP280;66422;51.202;19.936;2023-02-12T09:01:04;101331.02;;;2.55
77355;BMP280;66422;51.202;19.936;2023-02-12T09:16:23;101336.61;;;3.05
77355;BMP280;66422;51.202;19.936;2023-02-12T09:31:43;101362.64;;;3.67
77355;BMP280;66422;51.202;19.936;2023-02-12T10:02:55;101394.76;;;3.73
77355;BMP280;66422;51.202;19.936;2023-02-12T10:18:32;101389.45;;;3.67
77355;BMP280;66422;51.202;19.936;2023-02-12T10:33:57;101400.22;;;3.94
77355;BMP280;66422;51.202;19.936;2023-02-12T10:49:18;101396.89;;;4.15
77355;BMP280;66422;51.202;19.936;2023-02-12T11:04:39;101396.26;;;3.73
77355;BMP280;66422;51.202;19.936;2023-02-12T11:35:24;101373.45;;;4.13
77355;BMP280;66422;51.202;19.936;2023-02-12T11:50:50;101389.28;;;3.85
77355;BMP280;66422;51.202;19.936;2023-02-12T12:22:14;101385.98;;;4.38
77355;BMP280;66422;51.202;19.936;2023-02-12T12:37:47;101380.60;;;4.37
77355;BMP280;66422;51.202;19.936;2023-02-12T12:53:41;101384.94;;;4.65
77355;BMP280;66422;51.202;19.936;2023-02-12T13:24:45;101349.52;;;4.83
77355;BMP280;66422;51.202;19.936;2023-02-12T13:40:14;101350.54;;;4.90
77355;BMP280;66422;51.202;19.936;2023-02-12T13:55:40;101344.42;;;5.17
77355;BMP280;66422;51.202;19.936;2023-02-12T14:11:06;101343.41;;;5.16
77355;BMP280;66422;51.202;19.936;2023-02-12T14:26:35;101363.58;;;4.97
77355;BMP280;66422;51.202;19.936;2023-02-12T14:57:42;101366.73;;;5.09
77355;BMP280;66422;51.202;19.936;2023-02-12T15:28:41;101374.61;;;4.48
77355;BMP280;66422;51.202;19.936;2023-02-12T15:44:17;101362.19;;;3.98
77355;BMP280;66422;51.202;19.936;2023-02-12T15:59:37;101370.27;;;3.50
77355;BMP280;66422;51.202;19.936;2023-02-12T16:14:58;101376.02;;;3.23
77355;BMP280;66422;51.202;19.936;2023-02-12T16:30:29;101384.09;;;2.80
77355;BMP280;66422;51.202;19.936;2023-02-12T16:45:48;101379.91;;;2.48
77355;BMP280;66422;51.202;19.936;2023-02-12T17:01:08;101383.86;;;2.10
77355;BMP280;66422;51.202;19.936;2023-02-12T17:16:28;101364.26;;;2.02
77355;BMP280;66422;51.202;19.936;2023-02-12T17:31:48;101363.48;;;1.68
77355;BMP280;66422;51.202;19.936;2023-02-12T17:47:08;101379.13;;;1.75
77355;BMP280;66422;51.202;19.936;2023-02-12T18:02:28;101384.48;;;1.49
77355;BMP280;66422;51.202;19.936;2023-02-12T18:17:48;101393.73;;;1.51
77355;BMP280;66422;51.202;19.936;2023-02-12T18:33:08;101380.53;;;1.81
77355;BMP280;66422;51.202;19.936;2023-02-12T18:48:28;101375.58;;;2.40
77355;BMP280;66422;51.202;19.936;2023-02-12T19:03:52;101386.77;;;2.79
77355;BMP280;66422;51.202;19.936;2023-02-12T19:19:12;101380.16;;;3.04
77355;BMP280;66422;51.202;19.936;2023-02-12T19:34:32;101383.08;;;3.28
77355;BMP280;66422;51.202;19.936;2023-02-12T19:49:52;101367.34;;;3.22
77355;BMP280;66422;51.202;19.936;2023-02-12T20:05:12;101352.59;;;3.18
77355;BMP280;66422;51.202;19.936;2023-02-12T20:20:34;101343.52;;;3.09
77355;BMP280;66422;51.202;19.936;2023-02-12T20:35:55;101349.69;;;3.45
77355;BMP280;66422;51.202;19.936;2023-02-12T20:51:21;101354.09;;;3.26
77355;BMP280;66422;51.202;19.936;2023-02-12T21:06:41;101340.59;;;3.38
77355;BMP280;66422;51.202;19.936;2023-02-12T21:22:02;101333.94;;;3.41
77355;BMP280;66422;51.202;19.936;2023-02-12T21:37:22;101304.75;;;3.58
77355;BMP280;66422;51.202;19.936;2023-02-12T21:52:41;101302.60;;;3.86
77355;BMP280;66422;51.202;19.936;2023-02-12T22:08:01;101318.03;;;4.15
77355;BMP280;66422;51.202;19.936;2023-02-12T22:23:21;101310.00;;;4.16
77355;BMP280;66422;51.202;19.936;2023-02-12T22:38:40;101328.65;;;4.42
77355;BMP280;66422;51.202;19.936;2023-02-12T22:54:00;101332.70;;;4.39
77355;BMP280;66422;51.202;19.936;2023-02-12T23:09:19;101316.02;;;4.41
77355;BMP280;66422;51.202;19.936;2023-02-12T23:24:39;101320.21;;;4.51
77355;BMP280;66422;51.202;19.936;2023-02-12T23:39:59;101300.91;;;4.46
77355;BMP280;66422;51.202;19.936;2023-02-12T23:55:18;101297.36;;;4.57
